NBT40H LIRF-KJFK
Flight info
| Callsign | NBT40H |
|---|---|
| Flight time | N/A |
| Altitude | 38000 |
| Route | NEMBO DCT BAKRO DCT RONOP DCT GIGUS DCT BALSI DCT GIPNO DCT RUSIT DCT TIS DCT VALKU/N0481F390 DCT PECNO DCT LMG/N0477F380 DCT MANAK UY110 TIRAV UT183 BAGAD DCT LARLA DCT RATKA/M083F380 DCT GIPER/N0481F380 DCT LIMRI/M084F400 DCT 52N020W 52N030W 52N040W 50N050W DCT ELSIR/N0480F400 N398B TUSKY DCT PLYMM PARCH4 |
| Aircraft | B789/H-SDE1E2E3FGHIJ2J3J4J5M1RWXY/LB1D1 |
Departure
| Time | N/A |
|---|---|
| Airport | Rome–Fiumicino Leonardo da Vinci International Airport (LIRF) |
Arrival
| Time | 2026-04-30 20:07 |
|---|---|
| Airport | John F. Kennedy International Airport (KJFK) |
| Time | Latitude | Longitude | Altitude | Speed | Heading |
|---|---|---|---|---|---|
| 2026-04-30 13:44 | 48.34040 | -4.58885 | 38041 ft | 487 kts | 301° |
| 2026-04-30 13:44 | 48.35878 | -4.63169 | 38040 ft | 486 kts | 301° |
| 2026-04-30 13:44 | 48.39536 | -4.71710 | 38038 ft | 485 kts | 301° |
| 2026-04-30 13:45 | 48.45010 | -4.84551 | 38039 ft | 486 kts | 301° |
| 2026-04-30 13:46 | 48.48652 | -4.93121 | 38039 ft | 485 kts | 301° |
| 2026-04-30 13:46 | 48.52284 | -5.01703 | 38038 ft | 485 kts | 301° |
| 2026-04-30 13:47 | 48.55907 | -5.10282 | 38038 ft | 485 kts | 301° |
| 2026-04-30 13:47 | 48.59521 | -5.18874 | 38037 ft | 485 kts | 300° |
| 2026-04-30 13:48 | 48.63141 | -5.27505 | 38040 ft | 487 kts | 300° |
| 2026-04-30 13:48 | 48.66758 | -5.36162 | 38044 ft | 487 kts | 300° |
| 2026-04-30 13:49 | 48.70370 | -5.44829 | 38046 ft | 486 kts | 300° |
| 2026-04-30 13:49 | 48.73961 | -5.53472 | 38043 ft | 484 kts | 300° |
| 2026-04-30 13:50 | 48.77540 | -5.62120 | 38040 ft | 485 kts | 300° |
| 2026-04-30 13:50 | 48.82915 | -5.75154 | 38041 ft | 486 kts | 300° |
| 2026-04-30 13:51 | 48.85891 | -5.82398 | 38043 ft | 487 kts | 300° |
| 2026-04-30 13:51 | 48.89474 | -5.91149 | 38047 ft | 488 kts | 300° |
| 2026-04-30 13:52 | 48.93633 | -6.01340 | 38032 ft | 487 kts | 300° |
| 2026-04-30 13:52 | 48.96599 | -6.08632 | 38034 ft | 488 kts | 299° |
| 2026-04-30 13:53 | 49.00067 | -6.17186 | 38039 ft | 490 kts | 299° |
| 2026-04-30 13:53 | 49.03645 | -6.26038 | 38033 ft | 491 kts | 299° |
| 2026-04-30 13:54 | 49.07211 | -6.34891 | 38033 ft | 490 kts | 299° |
| 2026-04-30 13:54 | 49.10776 | -6.43770 | 38032 ft | 491 kts | 299° |
| 2026-04-30 13:55 | 49.14342 | -6.52680 | 38034 ft | 492 kts | 298° |
| 2026-04-30 13:55 | 49.17906 | -6.61615 | 38035 ft | 493 kts | 298° |
| 2026-04-30 13:56 | 49.21464 | -6.70568 | 38036 ft | 493 kts | 298° |
| 2026-04-30 13:56 | 49.25023 | -6.79551 | 38037 ft | 494 kts | 298° |
| 2026-04-30 13:57 | 49.28575 | -6.88546 | 38037 ft | 492 kts | 298° |
| 2026-04-30 13:57 | 49.32097 | -6.97503 | 38031 ft | 491 kts | 298° |
| 2026-04-30 13:58 | 49.37265 | -7.11047 | 38037 ft | 487 kts | 289° |
| 2026-04-30 13:59 | 49.39077 | -7.20956 | 38035 ft | 483 kts | 279° |
| 2026-04-30 13:59 | 49.40489 | -7.30964 | 38034 ft | 483 kts | 278° |
| 2026-04-30 14:00 | 49.41904 | -7.41030 | 38037 ft | 482 kts | 278° |
| 2026-04-30 14:00 | 49.44008 | -7.56138 | 38036 ft | 482 kts | 278° |
| 2026-04-30 14:01 | 49.45402 | -7.66207 | 38037 ft | 482 kts | 278° |
| 2026-04-30 14:01 | 49.46786 | -7.76301 | 38291 ft | 483 kts | 278° |
| 2026-04-30 14:02 | 49.47477 | -7.81356 | 38591 ft | 482 kts | 278° |
| 2026-04-30 14:02 | 49.48164 | -7.86399 | 38837 ft | 483 kts | 278° |
| 2026-04-30 14:02 | 49.48848 | -7.91451 | 39098 ft | 483 kts | 278° |
| 2026-04-30 14:02 | 49.49552 | -7.96495 | 39363 ft | 484 kts | 282° |
| 2026-04-30 14:03 | 49.50713 | -8.01386 | 39580 ft | 490 kts | 293° |
| 2026-04-30 14:03 | 49.52413 | -8.05967 | 39794 ft | 494 kts | 298° |
| 2026-04-30 14:03 | 49.54213 | -8.10469 | 40011 ft | 495 kts | 298° |
| 2026-04-30 14:03 | 49.56044 | -8.14989 | 40031 ft | 499 kts | 299° |
| 2026-04-30 14:04 | 49.59699 | -8.24072 | 40028 ft | 496 kts | 298° |
| 2026-04-30 14:04 | 49.63303 | -8.33095 | 40030 ft | 493 kts | 298° |
| 2026-04-30 14:05 | 49.66901 | -8.42106 | 40027 ft | 493 kts | 298° |
| 2026-04-30 14:05 | 49.70470 | -8.51094 | 40034 ft | 494 kts | 298° |
| 2026-04-30 14:06 | 49.75854 | -8.64698 | 40056 ft | 496 kts | 298° |
| 2026-04-30 14:07 | 49.81249 | -8.78399 | 40064 ft | 497 kts | 298° |
| 2026-04-30 14:08 | 49.86522 | -8.91866 | 40061 ft | 498 kts | 298° |
| 2026-04-30 14:08 | 49.91901 | -9.05671 | 40075 ft | 499 kts | 298° |
| 2026-04-30 14:09 | 49.95485 | -9.14912 | 40071 ft | 500 kts | 298° |
| 2026-04-30 14:10 | 50.00854 | -9.28813 | 40044 ft | 500 kts | 297° |
| 2026-04-30 14:10 | 50.04426 | -9.38106 | 40046 ft | 502 kts | 297° |
| 2026-04-30 14:11 | 50.08004 | -9.47443 | 40041 ft | 503 kts | 297° |
| 2026-04-30 14:11 | 50.11579 | -9.56812 | 40045 ft | 504 kts | 297° |
| 2026-04-30 14:12 | 50.15154 | -9.66210 | 40049 ft | 504 kts | 297° |
| 2026-04-30 14:12 | 50.18716 | -9.75609 | 40041 ft | 502 kts | 297° |
| 2026-04-30 14:13 | 50.22260 | -9.84996 | 40031 ft | 501 kts | 297° |
| 2026-04-30 14:13 | 50.25788 | -9.94372 | 40037 ft | 500 kts | 297° |
| 2026-04-30 14:14 | 50.29310 | -10.03767 | 40036 ft | 502 kts | 297° |
| 2026-04-30 14:14 | 50.32834 | -10.13204 | 40039 ft | 503 kts | 297° |
| 2026-04-30 14:15 | 50.36357 | -10.22670 | 40034 ft | 504 kts | 297° |
| 2026-04-30 14:15 | 50.39881 | -10.32173 | 40041 ft | 505 kts | 297° |
| 2026-04-30 14:16 | 50.43379 | -10.41641 | 40037 ft | 505 kts | 297° |
| 2026-04-30 14:16 | 50.46883 | -10.51163 | 40037 ft | 504 kts | 297° |
| 2026-04-30 14:17 | 50.50381 | -10.60703 | 40040 ft | 504 kts | 297° |
| 2026-04-30 14:17 | 50.53869 | -10.70249 | 40034 ft | 504 kts | 297° |
| 2026-04-30 14:18 | 50.57353 | -10.79821 | 40035 ft | 505 kts | 297° |
| 2026-04-30 14:18 | 50.62577 | -10.94240 | 40036 ft | 505 kts | 297° |
| 2026-04-30 14:19 | 50.67779 | -11.08681 | 40037 ft | 505 kts | 297° |
| 2026-04-30 14:20 | 50.71239 | -11.18330 | 40039 ft | 505 kts | 297° |
| 2026-04-30 14:20 | 50.76414 | -11.32834 | 40042 ft | 506 kts | 297° |
| 2026-04-30 14:21 | 50.79862 | -11.42541 | 40040 ft | 507 kts | 297° |
| 2026-04-30 14:22 | 50.85034 | -11.57173 | 40044 ft | 507 kts | 297° |
| 2026-04-30 14:22 | 50.90164 | -11.71769 | 40034 ft | 504 kts | 297° |
| 2026-04-30 14:23 | 50.96937 | -11.91170 | 40033 ft | 505 kts | 297° |
| 2026-04-30 14:24 | 51.02039 | -12.05820 | 40038 ft | 506 kts | 298° |
| 2026-04-30 14:25 | 51.08914 | -12.25340 | 40040 ft | 506 kts | 298° |
| 2026-04-30 14:26 | 51.14044 | -12.40010 | 40041 ft | 505 kts | 297° |
| 2026-04-30 14:27 | 51.19143 | -12.54704 | 40048 ft | 505 kts | 297° |
| 2026-04-30 14:27 | 51.22527 | -12.64502 | 40039 ft | 504 kts | 297° |
| 2026-04-30 14:28 | 51.27580 | -12.79199 | 40041 ft | 504 kts | 297° |
| 2026-04-30 14:28 | 51.30945 | -12.89037 | 40038 ft | 504 kts | 297° |
| 2026-04-30 14:29 | 51.37075 | -13.07057 | 40040 ft | 504 kts | 297° |
| 2026-04-30 14:31 | 51.45956 | -13.33394 | 40036 ft | 504 kts | 297° |
| 2026-04-30 14:31 | 51.50933 | -13.48278 | 40047 ft | 505 kts | 298° |
| 2026-04-30 14:32 | 51.55889 | -13.63183 | 40049 ft | 504 kts | 298° |
| 2026-04-30 14:33 | 51.59185 | -13.73150 | 40043 ft | 504 kts | 297° |
| 2026-04-30 14:33 | 51.64112 | -13.88114 | 40044 ft | 505 kts | 297° |
| 2026-04-30 14:34 | 51.67390 | -13.98134 | 40040 ft | 505 kts | 297° |
| 2026-04-30 14:34 | 51.70639 | -14.08090 | 40042 ft | 504 kts | 297° |
| 2026-04-30 14:35 | 51.75481 | -14.23014 | 40043 ft | 504 kts | 297° |
| 2026-04-30 14:36 | 51.78723 | -14.33054 | 40038 ft | 504 kts | 297° |
| 2026-04-30 14:36 | 51.81956 | -14.43105 | 40040 ft | 505 kts | 297° |
| 2026-04-30 14:37 | 51.85186 | -14.53199 | 40035 ft | 504 kts | 297° |
| 2026-04-30 14:37 | 51.88396 | -14.63268 | 40034 ft | 502 kts | 297° |
| 2026-04-30 14:38 | 51.91566 | -14.73232 | 40027 ft | 502 kts | 297° |
| 2026-04-30 14:38 | 51.94746 | -14.83300 | 40032 ft | 501 kts | 297° |
| 2026-04-30 14:39 | 51.97919 | -14.93353 | 40026 ft | 500 kts | 297° |
| 2026-04-30 14:39 | 51.99298 | -14.98515 | 40043 ft | 499 kts | 285° |
| 2026-04-30 14:39 | 52.00025 | -15.04027 | 40050 ft | 500 kts | 274° |
| 2026-04-30 14:40 | 52.00390 | -15.19037 | 40043 ft | 499 kts | 271° |
| 2026-04-30 14:40 | 52.00601 | -15.30270 | 40038 ft | 497 kts | 271° |
| 2026-04-30 14:41 | 52.00809 | -15.41490 | 40032 ft | 498 kts | 271° |
| 2026-04-30 14:41 | 52.00999 | -15.52736 | 40041 ft | 499 kts | 271° |
| 2026-04-30 14:42 | 52.01185 | -15.64012 | 40032 ft | 500 kts | 271° |
| 2026-04-30 14:42 | 52.01355 | -15.75312 | 40031 ft | 502 kts | 271° |
| 2026-04-30 14:43 | 52.01519 | -15.86644 | 40039 ft | 502 kts | 271° |
| 2026-04-30 14:43 | 52.01669 | -15.97946 | 40037 ft | 501 kts | 271° |
| 2026-04-30 14:44 | 52.01809 | -16.09234 | 40034 ft | 500 kts | 271° |
| 2026-04-30 14:44 | 52.01938 | -16.20508 | 40022 ft | 499 kts | 271° |
| 2026-04-30 14:45 | 52.02056 | -16.31776 | 40020 ft | 498 kts | 271° |
| 2026-04-30 14:45 | 52.02163 | -16.42997 | 40017 ft | 497 kts | 270° |
| 2026-04-30 14:46 | 52.02260 | -16.54236 | 40021 ft | 498 kts | 270° |
| 2026-04-30 14:46 | 52.02345 | -16.65404 | 40022 ft | 497 kts | 270° |
| 2026-04-30 14:47 | 52.02420 | -16.76619 | 40021 ft | 497 kts | 270° |
| 2026-04-30 14:47 | 52.02484 | -16.87810 | 40020 ft | 495 kts | 270° |
| 2026-04-30 14:48 | 52.02538 | -16.98982 | 40019 ft | 494 kts | 270° |
| 2026-04-30 14:48 | 52.02581 | -17.10131 | 40018 ft | 494 kts | 270° |
| 2026-04-30 14:49 | 52.02613 | -17.21252 | 40019 ft | 493 kts | 270° |
| 2026-04-30 14:49 | 52.02635 | -17.32379 | 40018 ft | 492 kts | 270° |
| 2026-04-30 14:50 | 52.02648 | -17.49044 | 40015 ft | 491 kts | 270° |
| 2026-04-30 14:51 | 52.02638 | -17.65738 | 40019 ft | 495 kts | 270° |
| 2026-04-30 14:52 | 52.02603 | -17.82511 | 40029 ft | 495 kts | 270° |
| 2026-04-30 14:52 | 52.02545 | -17.99277 | 40013 ft | 494 kts | 270° |
| 2026-04-30 14:53 | 52.02464 | -18.15978 | 40009 ft | 493 kts | 270° |
| 2026-04-30 14:54 | 52.02319 | -18.38192 | 40003 ft | 492 kts | 270° |
| 2026-04-30 14:55 | 52.02183 | -18.54823 | 40010 ft | 493 kts | 270° |
| 2026-04-30 14:56 | 52.01964 | -18.77063 | 40012 ft | 491 kts | 269° |
| 2026-04-30 14:57 | 52.01775 | -18.93631 | 40007 ft | 489 kts | 269° |
| 2026-04-30 14:58 | 52.01486 | -19.15651 | 40005 ft | 487 kts | 269° |
| 2026-04-30 14:58 | 52.01244 | -19.32110 | 40003 ft | 486 kts | 269° |
| 2026-04-30 15:00 | 52.00787 | -19.59619 | 40007 ft | 489 kts | 269° |
| 2026-04-30 15:01 | 52.00375 | -19.81703 | 40010 ft | 489 kts | 269° |
| 2026-04-30 15:01 | 52.00039 | -19.98205 | 40006 ft | 487 kts | 269° |
| 2026-04-30 15:02 | 52.00378 | -20.09148 | 40003 ft | 486 kts | 275° |
| 2026-04-30 15:03 | 52.01495 | -20.36503 | 40011 ft | 487 kts | 274° |
| 2026-04-30 15:04 | 52.02539 | -20.63864 | 39998 ft | 484 kts | 274° |
| 2026-04-30 15:06 | 52.03513 | -20.91073 | 39995 ft | 482 kts | 274° |
| 2026-04-30 15:07 | 52.04246 | -21.12780 | 39942 ft | 479 kts | 274° |
| 2026-04-30 15:08 | 52.04935 | -21.34391 | 39946 ft | 480 kts | 273° |
| 2026-04-30 15:09 | 52.05740 | -21.61377 | 39941 ft | 477 kts | 273° |
| 2026-04-30 15:10 | 52.06337 | -21.82870 | 39940 ft | 477 kts | 273° |
| 2026-04-30 15:11 | 52.07163 | -22.15303 | 39944 ft | 480 kts | 272° |
| 2026-04-30 15:13 | 52.07784 | -22.42289 | 39928 ft | 477 kts | 272° |
| 2026-04-30 15:14 | 52.08546 | -22.79919 | 39916 ft | 478 kts | 272° |
| 2026-04-30 15:17 | 52.09354 | -23.28783 | 39912 ft | 481 kts | 273° |
| 2026-04-30 15:19 | 52.09903 | -23.72220 | 39915 ft | 482 kts | 272° |
| 2026-04-30 17:39 | 49.12386 | -53.25082 | 40303 ft | 476 kts | 244° |
| 2026-04-30 17:42 | 48.98196 | -53.70664 | 40301 ft | 477 kts | 244° |
| 2026-04-30 17:43 | 48.91040 | -53.93340 | 40289 ft | 476 kts | 243° |
| 2026-04-30 17:44 | 48.82391 | -54.20474 | 40285 ft | 476 kts | 243° |
| 2026-04-30 17:47 | 48.69248 | -54.61156 | 40292 ft | 478 kts | 243° |
| 2026-04-30 17:48 | 48.58960 | -54.92549 | 40284 ft | 475 kts | 243° |
| 2026-04-30 17:50 | 48.47581 | -55.26825 | 40287 ft | 480 kts | 243° |
| 2026-04-30 17:52 | 48.38606 | -55.53543 | 40287 ft | 478 kts | 243° |
| 2026-04-30 17:54 | 48.24948 | -55.93671 | 40287 ft | 479 kts | 243° |
| 2026-04-30 17:56 | 48.12733 | -56.29042 | 40282 ft | 476 kts | 242° |
| 2026-04-30 17:58 | 48.03522 | -56.55398 | 40283 ft | 477 kts | 242° |
| 2026-04-30 18:00 | 47.91181 | -56.90296 | 40285 ft | 475 kts | 242° |
| 2026-04-30 18:01 | 47.83448 | -57.11931 | 40279 ft | 473 kts | 241° |
| 2026-04-30 18:02 | 47.74124 | -57.37781 | 40282 ft | 471 kts | 240° |
| 2026-04-30 18:04 | 47.65882 | -57.60424 | 40273 ft | 470 kts | 240° |
| 2026-04-30 18:06 | 47.53372 | -57.94425 | 40266 ft | 470 kts | 240° |
| 2026-04-30 18:08 | 47.42365 | -58.23984 | 40252 ft | 468 kts | 239° |
| 2026-04-30 18:10 | 47.29726 | -58.57530 | 40227 ft | 469 kts | 239° |
| 2026-04-30 18:11 | 47.18591 | -58.86737 | 40224 ft | 467 kts | 239° |
| 2026-04-30 18:13 | 47.10589 | -59.07537 | 40216 ft | 468 kts | 238° |
| 2026-04-30 18:14 | 47.02559 | -59.28245 | 40216 ft | 467 kts | 238° |
| 2026-04-30 18:15 | 46.92923 | -59.52891 | 40202 ft | 465 kts | 238° |
| 2026-04-30 18:16 | 46.86466 | -59.69278 | 40199 ft | 466 kts | 238° |
| 2026-04-30 18:17 | 46.83222 | -59.77478 | 40200 ft | 467 kts | 238° |
| 2026-04-30 18:18 | 46.78321 | -59.89815 | 40195 ft | 467 kts | 238° |
| 2026-04-30 18:18 | 46.75059 | -59.97996 | 40193 ft | 466 kts | 238° |
| 2026-04-30 18:19 | 46.71796 | -60.06153 | 40186 ft | 466 kts | 238° |
| 2026-04-30 18:19 | 46.68517 | -60.14327 | 40177 ft | 467 kts | 238° |
| 2026-04-30 18:20 | 46.65234 | -60.22488 | 40180 ft | 468 kts | 238° |
| 2026-04-30 18:20 | 46.61935 | -60.30664 | 40178 ft | 468 kts | 238° |
| 2026-04-30 18:21 | 46.58631 | -60.38828 | 40181 ft | 468 kts | 238° |
| 2026-04-30 18:21 | 46.55323 | -60.46975 | 40178 ft | 468 kts | 237° |
| 2026-04-30 18:22 | 46.52008 | -60.55118 | 40179 ft | 468 kts | 237° |
| 2026-04-30 18:22 | 46.47055 | -60.67237 | 40177 ft | 467 kts | 237° |
| 2026-04-30 18:23 | 46.43717 | -60.75375 | 40173 ft | 466 kts | 237° |
| 2026-04-30 18:23 | 46.40396 | -60.83449 | 40171 ft | 466 kts | 237° |
| 2026-04-30 18:24 | 46.35433 | -60.95470 | 40168 ft | 465 kts | 237° |
| 2026-04-30 18:25 | 46.32081 | -61.03558 | 40163 ft | 466 kts | 237° |
| 2026-04-30 18:25 | 46.27102 | -61.15532 | 40166 ft | 468 kts | 237° |
| 2026-04-30 18:26 | 46.22058 | -61.27608 | 40153 ft | 468 kts | 237° |
| 2026-04-30 18:27 | 46.16999 | -61.39665 | 40151 ft | 468 kts | 237° |
| 2026-04-30 18:28 | 46.11932 | -61.51692 | 40133 ft | 467 kts | 237° |
| 2026-04-30 18:28 | 46.06863 | -61.63669 | 40132 ft | 468 kts | 237° |
| 2026-04-30 18:29 | 46.00053 | -61.79682 | 40133 ft | 471 kts | 237° |
| 2026-04-30 18:30 | 45.93228 | -61.95637 | 40125 ft | 468 kts | 237° |
| 2026-04-30 18:31 | 45.88102 | -62.07562 | 40113 ft | 467 kts | 237° |
| 2026-04-30 18:32 | 45.82966 | -62.19458 | 40115 ft | 467 kts | 237° |
| 2026-04-30 18:33 | 45.77847 | -62.31266 | 40112 ft | 467 kts | 237° |
| 2026-04-30 18:33 | 45.72690 | -62.43111 | 40111 ft | 467 kts | 237° |
| 2026-04-30 18:34 | 45.67528 | -62.54917 | 40096 ft | 465 kts | 237° |
| 2026-04-30 18:35 | 45.64094 | -62.62744 | 40089 ft | 464 kts | 237° |
| 2026-04-30 18:35 | 45.60664 | -62.70540 | 40086 ft | 464 kts | 237° |
| 2026-04-30 18:36 | 45.55498 | -62.82242 | 40090 ft | 464 kts | 237° |
| 2026-04-30 18:37 | 45.50329 | -62.93900 | 40076 ft | 463 kts | 237° |
| 2026-04-30 18:37 | 45.46886 | -63.01640 | 40076 ft | 462 kts | 237° |
| 2026-04-30 18:38 | 45.44027 | -63.08052 | 40079 ft | 461 kts | 237° |
| 2026-04-30 18:38 | 45.40580 | -63.15761 | 40071 ft | 463 kts | 237° |
| 2026-04-30 18:39 | 45.37113 | -63.23495 | 40053 ft | 463 kts | 237° |
| 2026-04-30 18:39 | 45.33643 | -63.31215 | 40070 ft | 463 kts | 237° |
| 2026-04-30 18:40 | 45.30166 | -63.38927 | 40065 ft | 463 kts | 237° |
| 2026-04-30 18:40 | 45.26689 | -63.46620 | 40057 ft | 462 kts | 237° |
| 2026-04-30 18:41 | 45.23224 | -63.54266 | 40054 ft | 460 kts | 237° |
| 2026-04-30 18:41 | 45.19755 | -63.61900 | 40050 ft | 460 kts | 236° |
| 2026-04-30 18:42 | 45.16282 | -63.69523 | 40045 ft | 461 kts | 236° |
| 2026-04-30 18:42 | 45.11052 | -63.80962 | 40045 ft | 461 kts | 236° |
| 2026-04-30 18:45 | 44.91838 | -64.22601 | 40044 ft | 459 kts | 236° |
| 2026-04-30 18:46 | 44.88330 | -64.30139 | 40024 ft | 460 kts | 236° |
| 2026-04-30 18:46 | 44.84815 | -64.37670 | 40026 ft | 460 kts | 236° |
| 2026-04-30 18:47 | 44.81292 | -64.45199 | 40022 ft | 460 kts | 236° |
| 2026-04-30 18:47 | 44.77774 | -64.52699 | 40028 ft | 458 kts | 236° |
| 2026-04-30 18:48 | 44.74263 | -64.60162 | 40012 ft | 456 kts | 236° |
| 2026-04-30 18:48 | 44.70755 | -64.67602 | 40011 ft | 457 kts | 236° |
| 2026-04-30 18:49 | 44.67259 | -64.74997 | 40010 ft | 458 kts | 236° |
| 2026-04-30 18:49 | 44.63732 | -64.82437 | 40014 ft | 458 kts | 236° |
| 2026-04-30 18:50 | 44.60193 | -64.89884 | 40005 ft | 459 kts | 236° |
| 2026-04-30 18:50 | 44.56648 | -64.97324 | 39999 ft | 458 kts | 236° |
| 2026-04-30 18:51 | 44.53107 | -65.04738 | 39990 ft | 457 kts | 236° |
| 2026-04-30 18:51 | 44.49578 | -65.12108 | 39981 ft | 454 kts | 236° |
| 2026-04-30 18:52 | 44.46048 | -65.19458 | 39976 ft | 455 kts | 235° |
| 2026-04-30 18:52 | 44.42500 | -65.26829 | 39985 ft | 458 kts | 235° |
| 2026-04-30 18:53 | 44.38941 | -65.34203 | 39963 ft | 457 kts | 235° |
| 2026-04-30 18:53 | 44.35384 | -65.41558 | 39960 ft | 456 kts | 235° |
| 2026-04-30 18:54 | 44.31826 | -65.48890 | 39960 ft | 456 kts | 235° |
| 2026-04-30 18:54 | 44.28266 | -65.56213 | 39947 ft | 455 kts | 235° |
| 2026-04-30 18:55 | 44.24711 | -65.63504 | 39946 ft | 454 kts | 235° |
| 2026-04-30 18:55 | 44.19380 | -65.74404 | 39944 ft | 454 kts | 235° |
| 2026-04-30 18:56 | 44.14062 | -65.85239 | 39927 ft | 452 kts | 235° |
| 2026-04-30 18:57 | 44.08728 | -65.96064 | 39922 ft | 453 kts | 235° |
| 2026-04-30 18:57 | 44.05158 | -66.03287 | 39911 ft | 454 kts | 235° |
| 2026-04-30 18:58 | 43.99777 | -66.14142 | 39913 ft | 456 kts | 234° |
| 2026-04-30 18:59 | 43.94380 | -66.24991 | 39914 ft | 454 kts | 235° |
| 2026-04-30 19:00 | 43.87194 | -66.39367 | 39899 ft | 452 kts | 234° |
| 2026-04-30 19:01 | 43.80044 | -66.53603 | 39893 ft | 451 kts | 234° |
| 2026-04-30 19:02 | 43.74659 | -66.64279 | 39894 ft | 452 kts | 234° |
| 2026-04-30 19:03 | 43.67428 | -66.78553 | 39899 ft | 454 kts | 234° |
| 2026-04-30 19:04 | 43.60171 | -66.92811 | 39895 ft | 453 kts | 234° |
| 2026-04-30 19:05 | 43.53403 | -67.07407 | 39892 ft | 452 kts | 239° |
| 2026-04-30 19:06 | 43.47084 | -67.22423 | 39881 ft | 454 kts | 239° |
| 2026-04-30 19:06 | 43.42332 | -67.33666 | 39885 ft | 453 kts | 239° |
| 2026-04-30 19:07 | 43.37579 | -67.44869 | 39880 ft | 451 kts | 239° |
| 2026-04-30 19:08 | 43.31254 | -67.59714 | 39878 ft | 451 kts | 239° |
| 2026-04-30 19:09 | 43.26479 | -67.70875 | 39881 ft | 453 kts | 239° |
| 2026-04-30 19:09 | 43.23302 | -67.78276 | 39878 ft | 453 kts | 239° |
| 2026-04-30 19:10 | 43.16911 | -67.93106 | 39875 ft | 451 kts | 239° |
| 2026-04-30 19:11 | 43.12099 | -68.04220 | 39872 ft | 449 kts | 239° |
| 2026-04-30 19:12 | 43.08915 | -68.11553 | 39870 ft | 447 kts | 238° |
| 2026-04-30 19:12 | 43.05754 | -68.18812 | 39856 ft | 448 kts | 239° |
| 2026-04-30 19:13 | 42.99376 | -68.33409 | 39856 ft | 447 kts | 239° |
| 2026-04-30 19:14 | 42.96189 | -68.40675 | 39852 ft | 446 kts | 238° |
| 2026-04-30 19:14 | 42.92994 | -68.47941 | 39845 ft | 446 kts | 238° |
| 2026-04-30 19:15 | 42.89806 | -68.55173 | 39848 ft | 444 kts | 238° |
| 2026-04-30 19:15 | 42.85017 | -68.66008 | 39851 ft | 446 kts | 238° |
| 2026-04-30 19:16 | 42.81801 | -68.73258 | 39852 ft | 448 kts | 238° |
| 2026-04-30 19:17 | 42.76977 | -68.84101 | 39853 ft | 445 kts | 238° |
| 2026-04-30 19:17 | 42.72166 | -68.94877 | 39835 ft | 443 kts | 238° |
| 2026-04-30 19:18 | 42.67358 | -69.05606 | 39838 ft | 444 kts | 238° |
| 2026-04-30 19:19 | 42.64142 | -69.12758 | 39825 ft | 444 kts | 238° |
| 2026-04-30 19:19 | 42.59308 | -69.23482 | 39831 ft | 443 kts | 238° |
| 2026-04-30 19:20 | 42.56091 | -69.30597 | 39824 ft | 441 kts | 238° |
| 2026-04-30 19:21 | 42.51269 | -69.41226 | 39809 ft | 441 kts | 238° |
| 2026-04-30 19:22 | 42.44841 | -69.55342 | 39812 ft | 441 kts | 238° |
| 2026-04-30 19:23 | 42.35737 | -69.75217 | 39808 ft | 438 kts | 238° |
| 2026-04-30 19:24 | 42.30899 | -69.85727 | 39811 ft | 439 kts | 238° |
| 2026-04-30 19:25 | 42.22813 | -70.03204 | 39829 ft | 439 kts | 238° |
| 2026-04-30 19:26 | 42.16331 | -70.17142 | 39821 ft | 438 kts | 238° |
| 2026-04-30 19:27 | 42.11465 | -70.27572 | 39829 ft | 439 kts | 238° |
| 2026-04-30 19:28 | 42.06564 | -70.38027 | 39814 ft | 440 kts | 238° |
| 2026-04-30 19:29 | 42.01219 | -70.52761 | 39801 ft | 440 kts | 246° |
| 2026-04-30 19:30 | 41.96455 | -70.67905 | 39801 ft | 436 kts | 246° |
| 2026-04-30 19:31 | 41.91728 | -70.82840 | 39798 ft | 436 kts | 246° |
| 2026-04-30 19:31 | 41.88144 | -70.94111 | 39798 ft | 439 kts | 246° |
| 2026-04-30 19:32 | 41.85738 | -71.01654 | 39803 ft | 440 kts | 246° |
| 2026-04-30 19:32 | 41.83333 | -71.09166 | 39804 ft | 439 kts | 246° |
| 2026-04-30 19:33 | 41.80919 | -71.16691 | 39797 ft | 435 kts | 246° |
| 2026-04-30 19:33 | 41.79717 | -71.20427 | 39482 ft | 427 kts | 246° |
| 2026-04-30 19:33 | 41.78559 | -71.24025 | 38877 ft | 426 kts | 246° |
| 2026-04-30 19:34 | 41.77389 | -71.27652 | 38254 ft | 425 kts | 246° |
| 2026-04-30 19:34 | 41.76215 | -71.31287 | 37625 ft | 423 kts | 246° |
| 2026-04-30 19:34 | 41.73852 | -71.38509 | 36376 ft | 418 kts | 242° |
| 2026-04-30 19:35 | 41.72388 | -71.41799 | 35768 ft | 416 kts | 235° |
| 2026-04-30 19:35 | 41.70570 | -71.44793 | 35151 ft | 414 kts | 228° |
| 2026-04-30 19:35 | 41.68457 | -71.47398 | 34538 ft | 413 kts | 222° |
| 2026-04-30 19:35 | 41.66237 | -71.49889 | 33913 ft | 410 kts | 223° |
| 2026-04-30 19:36 | 41.64060 | -71.52333 | 33299 ft | 407 kts | 223° |
| 2026-04-30 19:36 | 41.61925 | -71.54710 | 32691 ft | 404 kts | 223° |
| 2026-04-30 19:36 | 41.57644 | -71.59474 | 31512 ft | 396 kts | 222° |
| 2026-04-30 19:37 | 41.55543 | -71.61815 | 30930 ft | 393 kts | 222° |
| 2026-04-30 19:37 | 41.53449 | -71.64143 | 30361 ft | 389 kts | 222° |
| 2026-04-30 19:37 | 41.51384 | -71.66436 | 29805 ft | 384 kts | 222° |
| 2026-04-30 19:37 | 41.49337 | -71.68706 | 29255 ft | 380 kts | 222° |
| 2026-04-30 19:38 | 41.47321 | -71.70941 | 28712 ft | 376 kts | 221° |
| 2026-04-30 19:38 | 41.45323 | -71.73153 | 28173 ft | 370 kts | 221° |
| 2026-04-30 19:38 | 41.43354 | -71.75334 | 27646 ft | 366 kts | 221° |
| 2026-04-30 19:38 | 41.41408 | -71.77487 | 27131 ft | 361 kts | 221° |
| 2026-04-30 19:39 | 41.39481 | -71.79616 | 26622 ft | 357 kts | 221° |
| 2026-04-30 19:39 | 41.37581 | -71.81714 | 26119 ft | 353 kts | 221° |
| 2026-04-30 19:39 | 41.35707 | -71.83783 | 25617 ft | 348 kts | 221° |
| 2026-04-30 19:39 | 41.33851 | -71.85829 | 25107 ft | 345 kts | 221° |
| 2026-04-30 19:40 | 41.32014 | -71.87850 | 24625 ft | 340 kts | 221° |
| 2026-04-30 19:40 | 41.30203 | -71.89844 | 24162 ft | 335 kts | 221° |
| 2026-04-30 19:40 | 41.28418 | -71.91809 | 23716 ft | 331 kts | 221° |
| 2026-04-30 19:40 | 41.26670 | -71.93729 | 23385 ft | 324 kts | 221° |
| 2026-04-30 19:41 | 41.24937 | -71.95634 | 23048 ft | 323 kts | 221° |
| 2026-04-30 19:41 | 41.23201 | -71.97541 | 22700 ft | 322 kts | 221° |
| 2026-04-30 19:41 | 41.21477 | -71.99431 | 22364 ft | 322 kts | 221° |
| 2026-04-30 19:41 | 41.19748 | -72.01328 | 22022 ft | 322 kts | 221° |
| 2026-04-30 19:42 | 41.18028 | -72.03212 | 21676 ft | 320 kts | 221° |
| 2026-04-30 19:42 | 41.16313 | -72.05088 | 21331 ft | 318 kts | 221° |
| 2026-04-30 19:42 | 41.14611 | -72.06950 | 20994 ft | 317 kts | 221° |
| 2026-04-30 19:42 | 41.12914 | -72.08807 | 20648 ft | 315 kts | 221° |
| 2026-04-30 19:43 | 41.11261 | -72.10685 | 20322 ft | 312 kts | 227° |
| 2026-04-30 19:43 | 41.09950 | -72.12944 | 19990 ft | 309 kts | 239° |
| 2026-04-30 19:43 | 41.09070 | -72.15547 | 19667 ft | 309 kts | 250° |
| 2026-04-30 19:44 | 41.07732 | -72.20930 | 19003 ft | 306 kts | 250° |
| 2026-04-30 19:44 | 41.07070 | -72.23609 | 18671 ft | 305 kts | 250° |
| 2026-04-30 19:44 | 41.06412 | -72.26270 | 18336 ft | 303 kts | 250° |
| 2026-04-30 19:44 | 41.05755 | -72.28920 | 18013 ft | 302 kts | 250° |
| 2026-04-30 19:45 | 41.05098 | -72.31560 | 17698 ft | 301 kts | 250° |
| 2026-04-30 19:45 | 41.04448 | -72.34172 | 17488 ft | 297 kts | 250° |
| 2026-04-30 19:45 | 41.03799 | -72.36781 | 17214 ft | 298 kts | 250° |
| 2026-04-30 19:45 | 41.03148 | -72.39392 | 16907 ft | 298 kts | 250° |
| 2026-04-30 19:46 | 41.02501 | -72.41985 | 16585 ft | 297 kts | 250° |
| 2026-04-30 19:46 | 41.01851 | -72.44587 | 16271 ft | 297 kts | 250° |
| 2026-04-30 19:46 | 41.01204 | -72.47174 | 15955 ft | 296 kts | 250° |
| 2026-04-30 19:46 | 41.00557 | -72.49756 | 15640 ft | 294 kts | 250° |
| 2026-04-30 19:47 | 40.99916 | -72.52315 | 15328 ft | 293 kts | 250° |
| 2026-04-30 19:47 | 40.99490 | -72.54012 | 15108 ft | 292 kts | 250° |
| 2026-04-30 19:47 | 40.98642 | -72.57388 | 14704 ft | 292 kts | 250° |
| 2026-04-30 19:47 | 40.97995 | -72.59960 | 14388 ft | 291 kts | 250° |
| 2026-04-30 19:48 | 40.97368 | -72.62456 | 14070 ft | 288 kts | 250° |
| 2026-04-30 19:48 | 40.96726 | -72.65002 | 13767 ft | 289 kts | 249° |
| 2026-04-30 19:48 | 40.96089 | -72.67527 | 13455 ft | 288 kts | 249° |
| 2026-04-30 19:48 | 40.95455 | -72.70038 | 13156 ft | 287 kts | 249° |
| 2026-04-30 19:49 | 40.94823 | -72.72538 | 12847 ft | 286 kts | 249° |
| 2026-04-30 19:49 | 40.93569 | -72.77489 | 12224 ft | 275 kts | 248° |
| 2026-04-30 19:49 | 40.92696 | -72.79678 | 11981 ft | 269 kts | 232° |
| 2026-04-30 19:50 | 40.91376 | -72.81402 | 11998 ft | 267 kts | 217° |
| 2026-04-30 19:50 | 40.89868 | -72.82853 | 12003 ft | 269 kts | 218° |
| 2026-04-30 19:50 | 40.88358 | -72.84312 | 12000 ft | 270 kts | 217° |
| 2026-04-30 19:50 | 40.86838 | -72.85773 | 12002 ft | 270 kts | 217° |
| 2026-04-30 19:51 | 40.85324 | -72.87219 | 11904 ft | 265 kts | 217° |
| 2026-04-30 19:51 | 40.83850 | -72.88631 | 10748 ft | 265 kts | 217° |
| 2026-04-30 19:51 | 40.82342 | -72.90078 | 9907 ft | 261 kts | 217° |
| 2026-04-30 19:51 | 40.80917 | -72.91442 | 9544 ft | 254 kts | 217° |
| 2026-04-30 19:52 | 40.79492 | -72.92806 | 9092 ft | 251 kts | 217° |
| 2026-04-30 19:52 | 40.78088 | -72.94149 | 8992 ft | 248 kts | 217° |
| 2026-04-30 19:52 | 40.76671 | -72.95504 | 8992 ft | 253 kts | 217° |
| 2026-04-30 19:52 | 40.75250 | -72.96864 | 8649 ft | 252 kts | 217° |
| 2026-04-30 19:53 | 40.73830 | -72.98220 | 8253 ft | 252 kts | 217° |
| 2026-04-30 19:53 | 40.72411 | -72.99574 | 7851 ft | 252 kts | 217° |
| 2026-04-30 19:53 | 40.71000 | -73.00920 | 7452 ft | 250 kts | 217° |
| 2026-04-30 19:53 | 40.69650 | -73.02347 | 7037 ft | 248 kts | 229° |
| 2026-04-30 19:54 | 40.68787 | -73.04297 | 6628 ft | 248 kts | 251° |
| 2026-04-30 19:54 | 40.68560 | -73.06550 | 6241 ft | 248 kts | 269° |
| 2026-04-30 19:54 | 40.68568 | -73.08821 | 5896 ft | 247 kts | 269° |
| 2026-04-30 19:54 | 40.68591 | -73.11080 | 5630 ft | 247 kts | 269° |
| 2026-04-30 19:55 | 40.68607 | -73.13318 | 5402 ft | 244 kts | 269° |
| 2026-04-30 19:55 | 40.68616 | -73.15574 | 5190 ft | 246 kts | 269° |
| 2026-04-30 19:55 | 40.68627 | -73.17816 | 4991 ft | 243 kts | 269° |
| 2026-04-30 19:55 | 40.68564 | -73.20030 | 4976 ft | 245 kts | 258° |
| 2026-04-30 19:56 | 40.67995 | -73.22141 | 4958 ft | 245 kts | 254° |
| 2026-04-30 19:56 | 40.68146 | -73.24364 | 4626 ft | 244 kts | 292° |
| 2026-04-30 19:56 | 40.69272 | -73.25936 | 4296 ft | 238 kts | 327° |
| 2026-04-30 19:56 | 40.70761 | -73.26829 | 3990 ft | 232 kts | 336° |
| 2026-04-30 19:57 | 40.72235 | -73.27579 | 3699 ft | 222 kts | 337° |
| 2026-04-30 19:57 | 40.73661 | -73.28297 | 3463 ft | 218 kts | 337° |
| 2026-04-30 19:57 | 40.75037 | -73.29112 | 3276 ft | 216 kts | 323° |
| 2026-04-30 19:57 | 40.75956 | -73.30647 | 3092 ft | 213 kts | 300° |
| 2026-04-30 19:58 | 40.76655 | -73.32344 | 2998 ft | 206 kts | 297° |
| 2026-04-30 19:58 | 40.77328 | -73.34027 | 3007 ft | 215 kts | 297° |
| 2026-04-30 19:58 | 40.78038 | -73.35808 | 3004 ft | 219 kts | 297° |
| 2026-04-30 19:58 | 40.78753 | -73.37603 | 3004 ft | 223 kts | 297° |
| 2026-04-30 19:59 | 40.79472 | -73.39412 | 3003 ft | 223 kts | 297° |
| 2026-04-30 19:59 | 40.80205 | -73.41259 | 3002 ft | 224 kts | 297° |
| 2026-04-30 19:59 | 40.81522 | -73.44956 | 2914 ft | 226 kts | 283° |
| 2026-04-30 20:00 | 40.81770 | -73.46966 | 2719 ft | 210 kts | 277° |
| 2026-04-30 20:00 | 40.81962 | -73.48803 | 2499 ft | 197 kts | 277° |
| 2026-04-30 20:00 | 40.82153 | -73.50569 | 2343 ft | 192 kts | 277° |
| 2026-04-30 20:00 | 40.82343 | -73.52310 | 2216 ft | 191 kts | 277° |
| 2026-04-30 20:01 | 40.82713 | -73.55756 | 1972 ft | 186 kts | 277° |
| 2026-04-30 20:01 | 40.82815 | -73.57447 | 1933 ft | 186 kts | 263° |
| 2026-04-30 20:01 | 40.82268 | -73.58951 | 1966 ft | 181 kts | 237° |
| 2026-04-30 20:02 | 40.80888 | -73.61763 | 1964 ft | 183 kts | 233° |
| 2026-04-30 20:02 | 40.80067 | -73.63029 | 1966 ft | 178 kts | 227° |
| 2026-04-30 20:03 | 40.78151 | -73.64772 | 1966 ft | 164 kts | 213° |
| 2026-04-30 20:03 | 40.77179 | -73.65542 | 1964 ft | 163 kts | 212° |
| 2026-04-30 20:03 | 40.76214 | -73.66301 | 1970 ft | 160 kts | 212° |
| 2026-04-30 20:03 | 40.75256 | -73.67054 | 1965 ft | 160 kts | 212° |
| 2026-04-30 20:04 | 40.74623 | -73.67552 | 1964 ft | 160 kts | 212° |
| 2026-04-30 20:04 | 40.73665 | -73.68303 | 1966 ft | 160 kts | 212° |
| 2026-04-30 20:04 | 40.72700 | -73.69061 | 1873 ft | 163 kts | 212° |
| 2026-04-30 20:05 | 40.70937 | -73.70444 | 1469 ft | 138 kts | 212° |
| 2026-04-30 20:05 | 40.70134 | -73.71086 | 1298 ft | 133 kts | 211° |
| 2026-04-30 20:05 | 40.68542 | -73.72337 | 948 ft | 133 kts | 211° |
| 2026-04-30 20:06 | 40.67745 | -73.72958 | 775 ft | 133 kts | 211° |
| 2026-04-30 20:06 | 40.66950 | -73.73582 | 600 ft | 133 kts | 211° |
| 2026-04-30 20:06 | 40.66142 | -73.74213 | 424 ft | 133 kts | 212° |
| 2026-04-30 20:06 | 40.65346 | -73.74837 | 262 ft | 134 kts | 211° |
| 2026-04-30 20:07 | 40.64581 | -73.75432 | 93 ft | 126 kts | 211° |
| 2026-04-30 20:07 | 40.63910 | -73.75962 | 27 ft | 79 kts | 211° |
| 2026-04-30 20:07 | 40.63343 | -73.76430 | 27 ft | 49 kts | 224° |
| 2026-04-30 20:08 | 40.63237 | -73.76664 | 25 ft | 20 kts | 266° |
| 2026-04-30 20:08 | 40.63249 | -73.76736 | 25 ft | 0 kts | 294° |
| 2026-04-30 20:08 | 40.63250 | -73.76740 | 29 ft | 1 kts | 294° |
| 2026-04-30 20:08 | 40.63255 | -73.76754 | 28 ft | 0 kts | 297° |
| 2026-04-30 20:09 | 40.63259 | -73.76764 | 26 ft | 2 kts | 297° |
| 2026-04-30 20:09 | 40.63268 | -73.76785 | 25 ft | 3 kts | 299° |
| 2026-04-30 20:09 | 40.63279 | -73.76810 | 29 ft | 0 kts | 298° |
| 2026-04-30 20:10 | 40.63354 | -73.76972 | 27 ft | 18 kts | 300° |
| 2026-04-30 20:10 | 40.63419 | -73.77117 | 29 ft | 19 kts | 301° |
| 2026-04-30 20:10 | 40.63488 | -73.77271 | 29 ft | 21 kts | 300° |
| 2026-04-30 20:11 | 40.63639 | -73.77583 | 31 ft | 11 kts | 329° |
| 2026-04-30 20:11 | 40.63692 | -73.77563 | 27 ft | 9 kts | 25° |
| 2026-04-30 20:11 | 40.63745 | -73.77522 | 24 ft | 11 kts | 32° |
| 2026-04-30 20:12 | 40.63903 | -73.77397 | 27 ft | 15 kts | 30° |
| 2026-04-30 20:12 | 40.63997 | -73.77324 | 27 ft | 18 kts | 31° |
| 2026-04-30 20:12 | 40.64111 | -73.77236 | 30 ft | 20 kts | 30° |
| 2026-04-30 20:13 | 40.64236 | -73.77139 | 29 ft | 23 kts | 30° |
| 2026-04-30 20:13 | 40.64376 | -73.77027 | 28 ft | 25 kts | 29° |
| 2026-04-30 20:13 | 40.64547 | -73.76987 | 26 ft | 25 kts | 359° |
| 2026-04-30 20:13 | 40.64694 | -73.77009 | 29 ft | 20 kts | 335° |
| 2026-04-30 20:14 | 40.64780 | -73.77111 | 29 ft | 14 kts | 306° |
| 2026-04-30 20:14 | 40.64833 | -73.77227 | 30 ft | 15 kts | 300° |
| 2026-04-30 20:14 | 40.64894 | -73.77359 | 28 ft | 19 kts | 302° |
| 2026-04-30 20:14 | 40.64968 | -73.77522 | 25 ft | 22 kts | 300° |
| 2026-04-30 20:15 | 40.65049 | -73.77703 | 28 ft | 23 kts | 300° |
| 2026-04-30 20:15 | 40.65135 | -73.77889 | 30 ft | 24 kts | 301° |
| 2026-04-30 20:15 | 40.65220 | -73.78078 | 27 ft | 24 kts | 301° |
| 2026-04-30 20:15 | 40.65303 | -73.78263 | 31 ft | 23 kts | 300° |
| 2026-04-30 20:16 | 40.65361 | -73.78411 | 30 ft | 10 kts | 274° |
| 2026-04-30 20:16 | 40.65350 | -73.78455 | 29 ft | 1 kts | 239° |
| 2026-04-30 20:16 | 40.65330 | -73.78469 | 29 ft | 0 kts | 193° |
| 2026-04-30 20:16 | 40.65310 | -73.78465 | 29 ft | 5 kts | 161° |
| 2026-04-30 20:17 | 40.65271 | -73.78408 | 29 ft | 7 kts | 122° |
| 2026-04-30 20:17 | 40.65245 | -73.78400 | 29 ft | 6 kts | 183° |
| 2026-04-30 20:17 | 40.65190 | -73.78399 | 29 ft | 10 kts | 167° |
| 2026-04-30 20:17 | 40.65147 | -73.78377 | 29 ft | 7 kts | 156° |
| 2026-04-30 20:18 | 40.65123 | -73.78364 | 28 ft | 0 kts | 156° |